Time;durP1;ratioP1;P1;durP2;ratioP2;P2;SDS_P1;SDS_P2;PMS_P1;PMS_P2;Temp;Humidity;BMP_temperature;BMP_pressure;BME280_temperature;BME280_humidity;BME280_pressure;Samples;Min_cycle;Max_cycle;Signal;HPM_P1;HPM_P2
2024/01/31 00:01:30;;;;;;;10.23;9.07;;;7.90;99.90;;;-141.84;75.20;20874.88;4967911;28;20220;-52
2024/01/31 00:03:59;;;;;;;10.10;8.13;;;7.90;99.90;;;-141.84;76.19;22310.38;4973738;28;20227;-54
2024/01/31 00:06:27;;;;;;;10.80;9.13;;;7.90;99.90;;;-141.84;76.43;23018.16;4969235;28;20223;-53
2024/01/31 00:08:57;;;;;;;9.70;8.57;;;7.90;99.90;;;-141.84;76.79;23683.34;4981214;28;20263;-52
2024/01/31 00:11:28;;;;;;;10.93;9.13;;;7.90;99.90;;;-141.84;77.16;24725.06;4974749;28;20219;-51
2024/01/31 00:13:57;;;;;;;14.17;9.20;;;7.90;99.90;;;-141.84;76.80;23797.25;4986086;28;20781;-56
2024/01/31 00:16:26;;;;;;;12.03;10.20;;;7.90;99.90;;;-141.84;76.03;22111.09;4984603;28;20422;-55
2024/01/31 00:18:55;;;;;;;10.67;9.33;;;7.90;99.90;;;-141.84;76.36;22930.69;4985055;28;20731;-53
2024/01/31 00:21:23;;;;;;;12.43;9.83;;;7.90;99.90;;;-141.84;77.07;24771.88;4983130;28;20278;-54
2024/01/31 00:23:56;;;;;;;12.07;9.90;;;7.90;99.90;;;-141.84;77.70;26351.31;4975797;28;20275;-54
2024/01/31 00:26:25;;;;;;;13.30;8.87;;;7.90;99.90;;;-141.84;78.04;28538.34;4982281;28;20643;-51
2024/01/31 00:28:53;;;;;;;10.27;9.27;;;8.00;99.90;;;-141.84;78.47;30345.50;4984587;28;20242;-54
2024/01/31 00:31:21;;;;;;;12.40;9.80;;;7.90;99.90;;;-141.84;78.24;30661.38;4984726;28;20230;-53
2024/01/31 00:33:49;;;;;;;11.37;9.27;;;7.90;99.90;;;-141.84;78.71;32055.63;4983266;28;20358;-53
2024/01/31 00:36:18;;;;;;;10.37;9.27;;;7.90;99.90;;;-141.84;78.73;32695.84;4981318;28;20705;-51
2024/01/31 00:38:46;;;;;;;11.17;9.13;;;7.90;99.90;;;-141.84;79.10;33856.25;4981482;28;20294;-53
2024/01/31 00:41:17;;;;;;;10.07;8.70;;;7.90;99.90;;;-141.84;79.62;37927.50;4981850;28;20216;-51
2024/01/31 00:43:45;;;;;;;12.50;9.50;;;7.90;99.90;;;-141.84;79.41;38274.63;4977038;28;20457;-50
2024/01/31 00:46:14;;;;;;;11.93;10.70;;;7.90;99.90;;;-141.84;79.03;34829.28;4975856;28;20607;-52
2024/01/31 00:48:43;;;;;;;13.03;10.40;;;7.90;99.90;;;-141.84;79.48;38135.78;4982494;28;20327;-53
2024/01/31 00:51:11;;;;;;;14.37;10.60;;;7.80;99.90;;;-141.84;79.33;37180.28;4978297;28;20282;-55
2024/01/31 00:53:40;;;;;;;14.23;10.80;;;7.90;99.90;;;-141.84;78.89;33330.03;4981226;28;20216;-55
2024/01/31 00:56:09;;;;;;;17.87;11.10;;;8.00;99.90;;;-141.84;77.89;29074.09;4972326;28;20235;-54
2024/01/31 00:58:39;;;;;;;13.50;10.40;;;7.90;99.90;;;-141.84;78.85;34347.84;4980564;28;20215;-55
2024/01/31 01:01:07;;;;;;;13.03;11.57;;;8.00;99.90;;;-141.84;79.31;36929.19;4986428;28;20836;-54
2024/01/31 01:03:36;;;;;;;13.00;10.30;;;8.00;99.90;;;-141.84;79.82;42086.81;4980578;28;20231;-53
2024/01/31 01:06:05;;;;;;;14.97;10.67;;;8.00;99.90;;;-141.84;80.30;44965.75;4980846;28;20231;-52
2024/01/31 01:08:34;;;;;;;12.30;11.00;;;7.90;99.90;;;-141.84;80.58;47322.81;4981995;28;20210;-53
2024/01/31 01:11:02;;;;;;;14.70;11.40;;;7.90;99.90;;;-141.84;80.31;45227.56;4977504;28;20220;-55
2024/01/31 01:13:30;;;;;;;13.57;11.23;;;7.90;99.90;;;-141.84;80.46;45751.28;4980554;28;20300;-55
2024/01/31 01:16:00;;;;;;;13.97;11.43;;;7.90;99.90;;;-141.84;81.15;52041.16;4981407;28;20236;-54
2024/01/31 01:18:28;;;;;;;15.67;11.20;;;7.90;99.90;;;-141.84;81.11;50205.56;4982313;28;20274;-53
2024/01/31 01:20:56;;;;;;;14.67;11.40;;;7.90;99.90;;;-141.84;81.42;53352.78;4983693;28;20199;-55
2024/01/31 01:23:25;;;;;;;12.83;11.27;;;7.90;99.90;;;-141.84;82.24;56765.13;4982064;28;20238;-50
2024/01/31 01:25:53;;;;;;;12.87;10.63;;;7.80;99.90;;;-141.84;82.61;58866.47;4979686;28;20247;-53
2024/01/31 01:28:21;;;;;;;14.13;10.63;;;7.80;99.90;;;-141.84;82.90;60706.06;4980404;28;20314;-51
2024/01/31 01:30:49;;;;;;;14.40;11.27;;;7.90;99.90;;;-141.84;82.56;59654.75;4981175;28;20231;-53
2024/01/31 01:33:19;;;;;;;17.30;11.47;;;7.80;99.90;;;-141.84;82.30;59917.56;4980085;28;20236;-55
2024/01/31 01:35:47;;;;;;;13.37;11.00;;;7.90;99.90;;;-141.84;80.43;46013.16;4980379;28;20242;-52
2024/01/31 01:38:16;;;;;;;13.63;10.63;;;7.90;99.90;;;-141.84;78.85;34050.03;4983728;28;20196;-51
2024/01/31 01:40:44;;;;;;;12.27;10.17;;;8.00;99.90;;;-141.84;77.87;29764.75;4982254;28;20246;-54
2024/01/31 01:43:17;;;;;;;12.90;10.10;;;8.10;99.90;;;-141.84;77.13;25903.47;4981351;28;20238;-53
2024/01/31 01:45:46;;;;;;;13.10;10.90;;;8.20;99.90;;;-141.84;77.04;26074.47;4979845;28;20643;-52
2024/01/31 01:48:16;;;;;;;12.17;9.77;;;8.20;99.90;;;-141.84;77.12;25921.78;4978717;28;20230;-54
2024/01/31 01:50:47;;;;;;;13.40;10.37;;;8.30;99.90;;;-141.84;76.38;23656.88;4980545;28;20242;-53
2024/01/31 01:53:16;;;;;;;10.73;9.40;;;8.30;99.90;;;-141.84;77.28;26206.78;4980899;28;20243;-54
2024/01/31 01:55:44;;;;;;;12.00;9.70;;;8.30;99.90;;;-141.84;75.18;21185.91;4979521;28;20259;-54
2024/01/31 01:58:13;;;;;;;11.73;9.97;;;8.30;99.90;;;-141.84;75.48;21706.44;4977046;28;20231;-55
2024/01/31 02:00:45;;;;;;;10.70;8.77;;;8.30;99.90;;;-141.84;76.07;22558.50;4982873;28;20223;-52
2024/01/31 02:03:18;;;;;;;11.00;9.20;;;8.30;99.90;;;-141.84;76.67;24527.69;4981523;28;20235;-53
2024/01/31 02:05:47;;;;;;;13.43;9.57;;;8.20;99.90;;;-141.84;77.11;24678.28;4972853;28;20208;-51
2024/01/31 02:08:16;;;;;;;12.70;9.70;;;8.10;99.90;;;-141.84;77.78;27723.66;4980392;28;20196;-52
2024/01/31 02:10:43;;;;;;;13.43;9.77;;;8.10;99.90;;;-141.84;79.61;36859.81;4976121;28;20899;-52
2024/01/31 02:13:12;;;;;;;12.37;9.37;;;7.90;99.90;;;-141.84;80.29;42348.44;4983077;28;20315;-52
2024/01/31 02:15:51;;;;;;;12.83;9.33;;;7.80;99.90;;;-141.84;80.06;42610.09;4979510;28;20235;-53
2024/01/31 02:18:19;;;;;;;12.83;9.90;;;7.70;99.90;;;-141.84;81.56;52565.75;4972324;28;20220;-50
2024/01/31 02:20:49;;;;;;;13.23;10.03;;;7.60;99.90;;;-141.84;82.41;57027.72;4979048;28;20246;-54
2024/01/31 02:23:19;;;;;;;13.80;9.67;;;7.50;99.90;;;-141.84;82.56;57815.66;4981015;28;20212;-52
2024/01/31 02:25:48;;;;;;;13.47;10.37;;;7.40;99.90;;;-141.84;83.06;61231.81;4981086;28;20232;-51
2024/01/31 02:28:17;;;;;;;12.83;9.90;;;7.30;99.90;;;-141.84;84.94;68336.31;4981045;28;20604;-52
2024/01/31 02:30:45;;;;;;;13.00;9.80;;;7.30;99.90;;;-141.84;86.56;75453.50;4978961;28;20371;-49
2024/01/31 02:33:13;;;;;;;11.93;9.67;;;7.10;99.90;;;-141.84;85.44;71234.38;4978756;28;20657;-50
2024/01/31 02:35:42;;;;;;;11.27;9.47;;;7.10;99.90;;;-141.84;86.18;75189.69;4979115;28;20204;-50
2024/01/31 02:38:10;;;;;;;11.97;9.37;;;7.10;99.90;;;-141.84;86.80;76772.88;4973363;28;20709;-57
2024/01/31 02:40:39;;;;;;;12.57;9.63;;;7.00;99.90;;;-141.84;85.26;72288.75;4980807;28;20326;-50
2024/01/31 02:43:08;;;;;;;10.83;9.43;;;7.00;99.90;;;-141.84;83.01;62283.53;4980088;28;20236;-54
2024/01/31 02:45:36;;;;;;;11.00;9.37;;;7.20;99.90;;;-141.84;82.40;57290.34;4973772;28;20274;-51
2024/01/31 02:48:08;;;;;;;12.27;9.57;;;7.20;99.90;;;-141.84;83.29;62809.50;4980767;28;20226;-55
2024/01/31 02:50:36;;;;;;;14.03;10.00;;;7.30;99.90;;;-141.84;81.98;54927.34;4980086;28;20658;-52
2024/01/31 02:53:05;;;;;;;11.93;9.60;;;7.40;99.90;;;-141.84;81.49;52303.44;4978268;28;20235;-52
2024/01/31 02:55:33;;;;;;;12.70;9.50;;;7.40;99.90;;;-141.84;82.03;54664.88;4978570;28;20379;-52
2024/01/31 02:58:03;;;;;;;12.90;9.37;;;7.40;99.90;;;-141.84;82.02;55452.34;4980320;28;20227;-54
2024/01/31 03:00:31;;;;;;;10.20;9.10;;;7.40;99.90;;;-141.84;82.86;59391.97;4989025;28;20227;-51
2024/01/31 03:03:00;;;;;;;11.63;9.27;;;7.40;99.90;;;-141.84;82.69;59654.75;4980904;28;20203;-54
2024/01/31 03:05:28;;;;;;;13.97;9.30;;;7.60;99.90;;;-141.84;82.91;60706.06;4979144;28;20379;-53
2024/01/31 03:07:56;;;;;;;11.57;9.40;;;7.40;99.90;;;-141.84;82.23;56239.94;4979922;28;20306;-54
2024/01/31 03:10:24;;;;;;;11.73;9.33;;;7.50;99.90;;;-141.84;82.14;57027.72;4983956;28;20294;-51
2024/01/31 03:12:53;;;;;;;11.33;8.93;;;7.40;99.90;;;-141.84;81.73;53615.19;4970690;28;20323;-54
2024/01/31 03:15:22;;;;;;;11.53;8.87;;;7.50;99.90;;;-141.84;80.39;43656.88;4976718;28;20238;-52
2024/01/31 03:17:50;;;;;;;10.03;8.50;;;7.50;99.90;;;-141.84;79.92;40402.94;4979939;28;20528;-52
2024/01/31 03:20:19;;;;;;;11.00;8.87;;;7.40;99.90;;;-141.84;80.33;44180.38;4974361;28;20211;-53
2024/01/31 03:22:47;;;;;;;10.17;8.80;;;7.50;99.90;;;-141.84;80.28;43656.88;4981245;28;20253;-50
2024/01/31 03:25:15;;;;;;;10.43;9.33;;;7.40;99.90;;;-141.84;80.39;43395.16;4979295;28;20306;-55
2024/01/31 03:27:43;;;;;;;10.00;9.00;;;7.40;99.90;;;-141.84;80.58;44703.94;4977729;28;20235;-53
2024/01/31 03:30:13;;;;;;;11.73;9.30;;;7.40;99.90;;;-141.84;79.41;38248.09;4978100;28;20231;-52
2024/01/31 03:32:43;;;;;;;12.17;9.20;;;7.40;99.90;;;-141.84;77.70;26363.53;4986182;28;20203;-53
2024/01/31 03:35:11;;;;;;;10.90;8.93;;;7.50;99.90;;;-141.84;78.08;28389.66;4950118;28;20298;-54
2024/01/31 03:37:39;;;;;;;10.77;9.63;;;7.50;99.90;;;-141.84;77.42;25681.59;4977607;28;20630;-52
2024/01/31 03:40:09;;;;;;;12.20;9.43;;;7.50;99.90;;;-141.84;78.41;29866.63;4979415;28;20735;-49
2024/01/31 03:42:38;;;;;;;9.93;8.33;;;7.50;99.90;;;-141.84;78.93;32182.03;4979984;28;20606;-53
2024/01/31 03:45:07;;;;;;;10.23;8.80;;;7.50;99.90;;;-141.84;78.22;29583.41;4980184;28;20224;-54
2024/01/31 03:47:35;;;;;;;10.87;8.43;;;7.50;99.90;;;-141.84;78.59;30288.44;4970412;28;20302;-53
2024/01/31 03:50:06;;;;;;;11.57;8.27;;;7.50;99.90;;;-141.84;79.35;36031.16;4981345;28;20732;-53
2024/01/31 03:52:36;;;;;;;9.93;8.20;;;7.50;99.90;;;-141.84;78.19;28418.16;4981466;28;20693;-54
2024/01/31 03:55:05;;;;;;;10.60;8.10;;;7.50;99.90;;;-141.84;78.68;31079.19;4981379;28;20227;-53
2024/01/31 03:57:34;;;;;;;9.73;8.73;;;7.50;99.90;;;-141.84;78.82;32701.97;4981628;28;20299;-54
2024/01/31 04:00:08;;;;;;;10.10;8.73;;;7.50;99.90;;;-141.84;78.21;30011.31;4981891;28;20204;-54
2024/01/31 04:02:36;;;;;;;10.60;8.73;;;7.50;99.90;;;-141.84;77.15;25280.66;4981590;28;20203;-50
2024/01/31 04:05:09;;;;;;;10.60;8.97;;;7.50;99.90;;;-141.84;76.79;24106.50;4981231;28;20255;-52
2024/01/31 04:07:38;;;;;;;10.13;8.50;;;7.60;99.90;;;-141.84;76.12;22241.22;4975068;28;20425;-55
2024/01/31 04:10:12;;;;;;;10.83;8.93;;;7.60;99.90;;;-141.84;75.81;22078.53;4978980;28;20311;-49
2024/01/31 04:12:40;;;;;;;11.70;9.40;;;7.60;99.90;;;-141.84;76.49;22704.94;4975840;28;20231;-53
2024/01/31 04:15:09;;;;;;;10.47;8.70;;;7.60;99.90;;;-141.84;76.51;23217.50;4983250;28;20752;-53
2024/01/31 04:17:37;;;;;;;11.77;9.63;;;7.60;99.90;;;-141.84;77.62;26233.25;4984075;28;20196;-53
2024/01/31 04:20:09;;;;;;;11.97;9.03;;;7.60;99.90;;;-141.84;78.13;28061.75;4981611;28;20237;-50
2024/01/31 04:22:37;;;;;;;11.17;8.63;;;7.60;99.90;;;-141.84;76.69;24029.19;4980990;28;20220;-50
2024/01/31 04:25:06;;;;;;;11.10;8.97;;;7.60;99.90;;;-141.84;75.12;20822.03;4980963;28;20226;-52
2024/01/31 04:27:34;;;;;;;10.07;8.83;;;7.60;99.90;;;-141.84;74.31;20023.19;4973094;28;20454;-54
2024/01/31 04:30:03;;;;;;;9.60;8.23;;;7.60;99.90;;;-141.84;76.01;21657.63;4980916;28;20631;-51
2024/01/31 04:32:31;;;;;;;10.17;8.67;;;7.60;99.90;;;-141.84;75.58;21690.16;4981487;28;20668;-50
2024/01/31 04:34:59;;;;;;;9.77;8.30;;;7.60;99.90;;;-141.84;70.59;18960.34;4981345;28;20220;-54
2024/01/31 04:37:29;;;;;;;9.27;7.50;;;7.70;99.90;;;-141.84;70.57;18917.66;4981245;28;20270;-49
2024/01/31 04:39:57;;;;;;;9.30;7.97;;;7.80;99.90;;;-141.84;71.71;19114.78;4981331;28;20227;-53
2024/01/31 04:42:25;;;;;;;9.07;7.60;;;7.70;99.90;;;-141.84;72.42;19167.59;4983045;28;20720;-53
2024/01/31 04:44:54;;;;;;;8.67;7.17;;;7.70;99.90;;;-141.84;72.44;19285.47;4983131;28;20226;-54
2024/01/31 04:47:25;;;;;;;9.50;8.20;;;7.70;99.90;;;-141.84;72.67;19340.31;4981577;28;20215;-54
2024/01/31 04:49:55;;;;;;;9.87;8.30;;;7.70;99.90;;;-141.84;72.90;19385.03;4980597;28;20330;-55
2024/01/31 04:52:24;;;;;;;12.90;8.87;;;7.60;99.90;;;-141.84;73.35;19452.09;4980152;28;20223;-53
2024/01/31 04:54:53;;;;;;;10.10;8.00;;;7.60;99.90;;;-141.84;73.24;19468.34;4988379;28;21100;-52
2024/01/31 04:57:22;;;;;;;10.87;8.37;;;7.60;99.90;;;-141.84;72.59;19273.28;4986288;28;20305;-51
2024/01/31 04:59:50;;;;;;;10.20;8.13;;;7.70;99.90;;;-141.84;73.62;19574.03;4982993;28;20282;-53
2024/01/31 05:02:21;;;;;;;7.77;6.97;;;7.70;99.90;;;-141.84;73.87;19679.72;4981157;28;20561;-54
2024/01/31 05:04:49;;;;;;;7.80;6.60;;;7.60;99.90;;;-141.84;73.45;19476.47;4980576;28;20243;-54
2024/01/31 05:07:18;;;;;;;8.20;6.60;;;7.60;99.90;;;-141.84;74.08;19807.75;4987466;28;20223;-53
2024/01/31 05:09:46;;;;;;;6.90;5.60;;;7.60;99.90;;;-141.84;73.13;19486.66;4982836;28;20231;-54
2024/01/31 05:12:16;;;;;;;7.30;5.10;;;7.60;99.90;;;-141.84;71.85;19133.06;4983099;28;20667;-53
2024/01/31 05:14:44;;;;;;;5.03;4.53;;;7.60;99.90;;;-141.84;70.39;18929.88;4982752;28;20200;-53
2024/01/31 05:17:15;;;;;;;6.63;4.83;;;7.60;99.90;;;-141.84;70.67;18986.75;4983455;28;20259;-53
2024/01/31 05:19:44;;;;;;;5.87;4.97;;;7.60;99.90;;;-141.84;71.78;19100.53;4983159;28;20262;-51
2024/01/31 05:22:12;;;;;;;5.30;4.70;;;7.60;99.90;;;-141.84;72.28;19183.84;4980294;28;20227;-52
2024/01/31 05:24:41;;;;;;;6.20;4.40;;;7.60;99.90;;;-141.84;73.08;19397.22;4985478;28;20251;-54
2024/01/31 05:27:10;;;;;;;5.03;3.90;;;7.60;99.90;;;-141.84;74.13;19817.91;4981912;28;20259;-53
2024/01/31 05:29:40;;;;;;;5.93;4.07;;;7.60;99.90;;;-141.84;74.96;20651.25;4974336;28;20197;-55
2024/01/31 05:32:08;;;;;;;3.90;3.40;;;7.60;99.90;;;-141.84;76.30;22700.84;4983112;28;20208;-55
2024/01/31 05:34:37;;;;;;;4.17;3.20;;;7.60;99.90;;;-141.84;77.12;24316.06;4984344;28;20733;-53
2024/01/31 05:37:05;;;;;;;4.40;2.80;;;7.50;99.90;;;-141.84;78.09;28273.56;4983365;28;20693;-56
2024/01/31 05:39:34;;;;;;;3.93;3.10;;;7.50;99.90;;;-141.84;78.13;28350.94;4978342;28;20247;-53
2024/01/31 05:42:02;;;;;;;4.33;2.90;;;7.60;99.90;;;-141.84;78.95;33631.88;4979734;28;20204;-54
2024/01/31 05:44:30;;;;;;;3.23;2.60;;;7.50;99.90;;;-141.84;80.02;40611.34;4980007;28;20200;-54
2024/01/31 05:47:00;;;;;;;3.57;3.03;;;7.50;99.90;;;-141.84;80.77;47322.81;4979290;28;20661;-54
2024/01/31 05:49:28;;;;;;;4.77;2.83;;;7.40;99.90;;;-141.84;80.67;46275.03;4981325;28;20322;-52
2024/01/31 05:51:56;;;;;;;4.10;3.00;;;7.40;99.90;;;-141.84;81.89;54140.00;4980758;28;20228;-52
2024/01/31 05:54:25;;;;;;;2.73;2.50;;;7.50;99.90;;;-141.84;81.76;54664.88;4979455;28;20242;-55
2024/01/31 05:56:53;;;;;;;3.17;2.70;;;7.40;99.90;;;-141.84;82.80;58603.75;4978792;28;20607;-49
2024/01/31 05:59:25;;;;;;;3.00;2.47;;;7.40;99.90;;;-141.84;83.42;62809.50;4981186;28;20192;-54
2024/01/31 06:01:53;;;;;;;3.10;2.40;;;7.40;99.90;;;-141.84;83.89;66493.19;4980453;28;20335;-54
2024/01/31 06:04:23;;;;;;;2.43;2.23;;;7.40;99.90;;;-141.84;84.26;67019.72;4981939;28;20664;-49
2024/01/31 06:06:51;;;;;;;3.30;2.13;;;7.40;99.90;;;-141.84;86.15;75189.69;4985342;28;20517;-52
2024/01/31 06:09:20;;;;;;;3.43;2.30;;;7.30;99.90;;;-141.84;85.30;72552.38;4980476;28;20235;-52
2024/01/31 06:11:48;;;;;;;3.90;3.00;;;7.30;99.90;;;-141.84;86.04;75981.22;4980737;28;20483;-52
2024/01/31 06:14:16;;;;;;;3.27;2.70;;;7.30;99.90;;;-141.84;87.44;80469.50;4974551;28;20204;-52
2024/01/31 06:16:44;;;;;;;2.63;2.43;;;7.30;99.90;;;-141.84;89.45;87343.63;4968336;28;20852;-51
2024/01/31 06:19:13;;;;;;;2.40;2.20;;;7.20;99.90;;;-141.84;91.32;92904.41;4971362;28;20227;-55
2024/01/31 06:21:42;;;;;;;2.90;2.60;;;7.10;99.90;;;-141.84;92.21;96350.63;4977845;28;20234;-52
2024/01/31 06:24:10;;;;;;;3.63;2.53;;;7.10;99.90;;;-141.84;93.25;97942.19;4980878;28;20278;-55
2024/01/31 06:26:42;;;;;;;4.00;2.47;;;7.00;99.90;;;-141.84;94.81;101658.25;4981513;28;20243;-53
2024/01/31 06:29:17;;;;;;;2.63;2.43;;;6.90;99.90;;;-141.84;95.40;103251.88;4973984;28;20299;-50
2024/01/31 06:31:47;;;;;;;3.00;2.57;;;6.80;99.90;;;-141.84;96.85;105909.34;4969716;28;20380;-53
2024/01/31 06:34:16;;;;;;;4.70;3.17;;;6.90;99.90;;;-141.84;97.67;107504.66;4981316;28;20219;-53
2024/01/31 06:36:46;;;;;;;3.37;2.83;;;6.90;99.90;;;-141.84;97.37;107504.66;4979272;28;20332;-55
2024/01/31 06:39:15;;;;;;;5.37;2.70;;;6.90;99.90;;;-141.84;97.87;108302.56;4980800;28;20227;-54
2024/01/31 06:41:43;;;;;;;4.80;3.10;;;6.90;99.90;;;-141.84;98.24;109100.59;4977603;28;20204;-54
2024/01/31 06:44:11;;;;;;;5.70;2.90;;;6.90;99.90;;;-141.84;98.78;109898.81;4979113;28;20203;-51
2024/01/31 06:46:39;;;;;;;3.20;2.70;;;6.90;99.90;;;-141.84;99.25;110697.16;4983300;28;20247;-52
2024/01/31 06:49:08;;;;;;;5.60;2.80;;;6.80;99.90;;;-141.84;99.32;110963.31;4980489;28;20233;-54
2024/01/31 06:51:36;;;;;;;3.87;3.30;;;6.80;99.90;;;-141.84;99.57;111229.50;4970282;28;20566;-51
2024/01/31 06:54:06;;;;;;;4.10;3.43;;;6.80;99.90;;;-141.84;99.21;110963.31;4978006;28;20707;-52
2024/01/31 06:56:34;;;;;;;4.80;3.40;;;6.80;99.90;;;-141.84;99.66;111495.69;4978562;28;20220;-54
2024/01/31 06:59:03;;;;;;;4.07;2.80;;;6.80;99.90;;;-141.84;100.00;112560.63;4972955;28;20265;-52
2024/01/31 07:01:32;;;;;;;5.57;3.50;;;6.80;99.90;;;-141.84;100.00;113093.19;4979921;28;20220;-51
2024/01/31 07:04:00;;;;;;;4.23;3.40;;;6.80;99.90;;;-141.84;100.00;112560.63;4966755;28;20235;-52
2024/01/31 07:06:29;;;;;;;3.63;3.07;;;6.80;99.90;;;-141.84;99.59;112028.13;4977864;28;20307;-50
2024/01/31 07:08:57;;;;;;;3.43;3.13;;;6.80;99.90;;;-141.84;100.00;112826.88;4976704;28;20203;-52
2024/01/31 07:11:26;;;;;;;3.80;3.40;;;6.80;99.90;;;-141.84;98.68;110431.03;4979772;28;20259;-49
2024/01/31 07:13:55;;;;;;;4.50;3.20;;;6.90;99.90;;;-141.84;98.62;110431.03;4975694;28;20251;-53
2024/01/31 07:16:23;;;;;;;4.17;3.13;;;6.90;99.90;;;-141.84;98.59;110431.03;4977735;28;20228;-53
2024/01/31 07:18:51;;;;;;;4.43;3.47;;;6.90;99.90;;;-141.84;99.05;110963.31;4979053;28;20239;-54
2024/01/31 07:21:26;;;;;;;4.43;3.40;;;6.90;99.90;;;-141.84;98.86;110963.31;4980189;28;20215;-53
2024/01/31 07:23:54;;;;;;;4.30;3.30;;;6.90;99.90;;;-141.84;97.73;109366.66;4979033;28;20190;-53
2024/01/31 07:26:24;;;;;;;4.80;3.10;;;6.90;99.90;;;-141.84;97.68;108834.56;4980465;28;20668;-48
2024/01/31 07:28:53;;;;;;;6.37;4.00;;;7.00;99.90;;;-141.84;97.60;109366.66;4980210;28;20223;-51
2024/01/31 07:31:22;;;;;;;3.90;3.30;;;7.00;99.90;;;-141.84;96.11;106441.06;4979025;28;20301;-53
2024/01/31 07:33:50;;;;;;;6.10;4.00;;;7.00;99.90;;;-141.84;95.55;105377.72;4977683;28;20343;-53
2024/01/31 07:36:19;;;;;;;6.60;3.63;;;7.00;99.90;;;-141.84;94.86;103783.25;4978457;28;20290;-54
2024/01/31 07:38:47;;;;;;;4.73;3.60;;;7.10;99.90;;;-141.84;95.32;105111.94;4978384;28;20205;-50
2024/01/31 07:41:16;;;;;;;3.80;3.40;;;7.10;99.90;;;-141.84;96.33;106706.94;4977103;28;20212;-51
2024/01/31 07:43:44;;;;;;;4.53;3.80;;;7.10;99.90;;;-141.84;95.99;106175.19;4971909;28;20279;-49
2024/01/31 07:46:14;;;;;;;4.87;3.23;;;7.10;99.90;;;-141.84;95.03;105111.94;4966679;28;20216;-54
2024/01/31 07:48:42;;;;;;;4.70;3.70;;;7.10;99.90;;;-141.84;94.65;103517.56;4972499;28;20238;-52
2024/01/31 07:51:10;;;;;;;5.20;3.67;;;7.10;99.90;;;-141.84;94.81;104048.94;4971497;28;20298;-55
2024/01/31 07:53:39;;;;;;;5.17;3.33;;;7.10;99.90;;;-141.84;94.60;103517.56;4976324;28;20207;-54
2024/01/31 07:56:07;;;;;;;4.30;3.60;;;7.10;99.90;;;-141.84;94.69;103783.25;4968830;28;20640;-56
2024/01/31 07:58:36;;;;;;;4.13;3.40;;;7.10;99.90;;;-141.84;94.07;102455.00;4974900;28;20244;-55
2024/01/31 08:01:04;;;;;;;6.73;4.40;;;7.20;99.90;;;-141.84;94.09;102455.00;4970963;28;20200;-53
2024/01/31 08:03:39;;;;;;;5.17;3.83;;;7.20;99.90;;;-141.84;94.40;102986.25;4966744;28;20235;-64
2024/01/31 08:06:07;;;;;;;5.37;3.50;;;7.20;99.90;;;-141.84;94.76;104048.94;4980649;28;20218;-63
2024/01/31 08:08:37;;;;;;;6.57;4.33;;;7.20;99.90;;;-141.84;94.18;102720.59;4978438;28;20200;-65
2024/01/31 08:11:05;;;;;;;5.63;4.57;;;7.20;99.90;;;-141.84;92.85;100330.69;4974760;28;20207;-62
2024/01/31 08:13:34;;;;;;;5.53;3.80;;;7.20;99.90;;;-141.84;93.11;100330.69;4980683;28;20324;-62
2024/01/31 08:16:03;;;;;;;4.47;3.47;;;7.20;99.90;;;-141.84;92.89;100065.22;4980418;28;20223;-62
2024/01/31 08:18:32;;;;;;;5.10;3.80;;;7.30;99.90;;;-141.84;92.51;99268.97;4978554;28;20238;-63
2024/01/31 08:21:02;;;;;;;5.90;4.00;;;7.20;99.90;;;-141.84;91.46;97942.19;4982120;28;20223;-64
2024/01/31 08:23:30;;;;;;;5.63;4.40;;;7.30;99.90;;;-141.84;89.29;89990.66;4980854;28;20202;-63
2024/01/31 08:25:58;;;;;;;4.13;3.60;;;7.30;99.90;;;-141.84;89.02;89196.38;4978096;28;20657;-62
2024/01/31 08:28:27;;;;;;;5.57;3.70;;;7.40;99.90;;;-141.84;89.41;90520.28;4984747;28;20296;-63
2024/01/31 08:30:55;;;;;;;5.73;4.00;;;7.40;99.90;;;-141.84;88.58;89196.38;4978099;28;20224;-62
2024/01/31 08:33:23;;;;;;;5.43;3.70;;;7.40;99.90;;;-141.84;87.44;84169.50;4970805;28;20263;-64
2024/01/31 08:35:52;;;;;;;3.50;3.07;;;7.40;99.90;;;-141.84;84.57;73343.38;4981080;28;20231;-62
2024/01/31 08:38:21;;;;;;;2.93;2.13;;;7.50;99.90;;;-141.84;81.42;56239.94;4981833;28;20286;-63
2024/01/31 08:40:49;;;;;;;2.67;2.20;;;7.40;99.90;;;-141.84;77.17;26746.28;4987086;28;20687;-64
2024/01/31 08:43:18;;;;;;;3.73;2.10;;;7.50;99.90;;;-141.84;77.78;28968.16;4981464;28;20244;-65
2024/01/31 08:45:46;;;;;;;3.70;2.10;;;7.50;99.90;;;-141.84;77.37;25952.31;4978291;28;20707;-65
2024/01/31 08:48:14;;;;;;;3.77;2.13;;;7.50;99.90;;;-141.84;76.83;24712.88;4984560;28;20281;-65
2024/01/31 08:50:43;;;;;;;2.13;1.80;;;7.50;99.90;;;-141.84;75.76;22037.88;4983664;28;20260;-62
2024/01/31 08:53:11;;;;;;;2.80;1.87;;;7.50;99.90;;;-141.84;76.26;22420.19;4982735;28;20204;-64
2024/01/31 08:55:40;;;;;;;2.67;2.20;;;7.40;99.90;;;-141.84;78.00;27894.72;4969438;28;20321;-66
2024/01/31 08:58:13;;;;;;;4.87;2.30;;;7.30;99.90;;;-141.84;78.43;32483.78;4983492;28;20580;-64
2024/01/31 09:00:42;;;;;;;2.83;2.20;;;7.30;99.90;;;-141.84;76.14;23048.66;4975665;28;20224;-63
2024/01/31 09:03:10;;;;;;;3.93;2.47;;;7.40;99.90;;;-141.84;76.59;24006.81;4987768;28;20330;-63
2024/01/31 09:05:38;;;;;;;4.07;2.40;;;7.40;99.90;;;-141.84;74.58;20354.47;4991441;28;20427;-62
2024/01/31 09:08:07;;;;;;;4.17;2.40;;;7.40;99.90;;;-141.84;74.00;19897.16;4984556;28;20214;-61
2024/01/31 09:10:36;;;;;;;3.70;2.30;;;7.40;99.90;;;-141.84;74.77;20378.88;4980189;28;20224;-63
2024/01/31 09:13:06;;;;;;;3.63;2.33;;;7.40;99.90;;;-141.84;74.40;20285.38;4982900;28;20565;-63
2024/01/31 09:15:34;;;;;;;3.93;2.50;;;7.50;99.90;;;-141.84;73.91;19752.88;4976771;28;20230;-63
2024/01/31 09:18:03;;;;;;;3.37;2.80;;;7.50;99.90;;;-141.84;74.94;20596.38;4983156;28;20242;-62
2024/01/31 09:20:31;;;;;;;4.37;2.70;;;7.50;99.90;;;-141.84;72.56;19301.72;4982121;28;20205;-63
2024/01/31 09:23:00;;;;;;;3.80;2.43;;;7.50;99.90;;;-141.84;72.64;19228.56;4985329;28;20235;-62
2024/01/31 09:25:28;;;;;;;2.87;2.57;;;7.60;99.90;;;-141.84;73.97;19887.00;4983088;28;20289;-62
2024/01/31 09:27:56;;;;;;;5.33;3.00;;;7.60;99.90;;;-141.84;71.43;19078.19;4982753;28;20247;-61
2024/01/31 09:30:26;;;;;;;3.53;2.80;;;7.70;99.90;;;-141.84;71.33;19017.25;4983247;28;20219;-62
2024/01/31 09:32:54;;;;;;;4.07;2.77;;;7.80;99.90;;;-141.84;70.51;18935.97;4981919;28;20223;-61
2024/01/31 09:35:22;;;;;;;4.50;2.83;;;7.80;99.90;;;-141.84;70.82;18966.44;4982795;28;20227;-61
2024/01/31 09:37:51;;;;;;;3.03;2.57;;;7.80;99.90;;;-141.84;72.32;19163.53;4983608;28;20226;-61
2024/01/31 09:40:22;;;;;;;4.30;3.00;;;7.70;99.90;;;-141.84;72.94;19419.59;4982960;28;20712;-62
2024/01/31 09:42:51;;;;;;;4.20;3.13;;;7.60;99.90;;;-141.84;70.99;18978.63;4972559;28;20220;-64
2024/01/31 09:45:22;;;;;;;3.87;2.60;;;7.70;99.90;;;-141.84;70.43;18929.88;4976973;28;20775;-62
2024/01/31 09:47:57;;;;;;;6.20;3.10;;;7.70;99.90;;;-141.84;71.63;19092.41;4942319;28;20714;-63
2024/01/31 09:50:25;;;;;;;3.33;2.73;;;7.60;99.90;;;-141.84;70.32;18903.44;4974070;28;20262;-54
2024/01/31 09:52:54;;;;;;;3.87;2.93;;;7.60;99.90;;;-141.84;70.80;18923.78;4980411;28;20231;-55
2024/01/31 09:55:28;;;;;;;4.80;2.90;;;7.60;99.90;;;-141.84;71.23;19007.06;4980717;28;20239;-54
2024/01/31 09:57:57;;;;;;;2.90;2.60;;;7.60;99.90;;;-141.84;68.72;18779.50;4980062;28;20255;-54
2024/01/31 10:00:26;;;;;;;2.53;2.30;;;7.60;99.90;;;-141.84;68.76;18765.28;4983083;28;20787;-54
2024/01/31 10:02:56;;;;;;;3.20;2.90;;;7.60;99.90;;;-141.84;67.99;18722.63;4985689;28;20200;-54
2024/01/31 10:05:25;;;;;;;6.53;2.60;;;7.70;99.90;;;-141.84;68.36;18809.97;4980739;28;20224;-52
2024/01/31 10:08:02;;;;;;;3.40;2.20;;;7.80;99.90;;;-141.84;66.40;18728.72;4976958;28;20698;-48
2024/01/31 10:10:31;;;;;;;3.60;2.40;;;7.90;99.90;;;-141.84;66.20;18692.13;4965810;28;20322;-54
2024/01/31 10:13:07;;;;;;;2.57;2.10;;;7.90;99.90;;;-141.84;67.57;18724.66;4985116;28;20315;-51
2024/01/31 10:15:35;;;;;;;6.87;2.20;;;7.90;99.90;;;-141.84;68.41;18779.50;4986282;28;20251;-54